createdAt,value
2024-03-19T00:00:32.541Z,99417.58
2024-03-19T00:03:03.308Z,99419.23
2024-03-19T00:05:33.883Z,99420.08
2024-03-19T00:08:04.725Z,99421.88
2024-03-19T00:10:35.235Z,99425.70
2024-03-19T00:13:06.424Z,99429.95
2024-03-19T00:15:37.022Z,99428.34
2024-03-19T00:18:07.904Z,99429.52
2024-03-19T00:20:38.592Z,99429.16
2024-03-19T00:23:09.319Z,99432.02
2024-03-19T00:25:40.420Z,99432.27
2024-03-19T00:28:10.873Z,99431.35
2024-03-19T00:30:41.443Z,99431.81
2024-03-19T00:33:12.597Z,99432.61
2024-03-19T00:35:46.378Z,99433.52
2024-03-19T00:38:16.792Z,99439.67
2024-03-19T00:40:47.187Z,99439.17
2024-03-19T00:43:17.601Z,99440.36
2024-03-19T00:45:48.441Z,99441.09
2024-03-19T00:48:19.170Z,99441.05
2024-03-19T00:50:49.765Z,99441.53
2024-03-19T00:53:20.310Z,99445.23
2024-03-19T00:55:50.802Z,99445.31
2024-03-19T00:58:21.402Z,99445.90
2024-03-19T01:00:53.199Z,99442.52
2024-03-19T01:03:23.597Z,99444.33
2024-03-19T01:05:54.138Z,99445.65
2024-03-19T01:08:24.527Z,99445.64
2024-03-19T01:10:55.101Z,99451.13
2024-03-19T01:13:25.637Z,99451.77
2024-03-19T01:15:56.089Z,99451.77
2024-03-19T01:18:27.192Z,99457.86
2024-03-19T01:20:57.848Z,99458.38
2024-03-19T01:23:28.290Z,99455.84
2024-03-19T01:25:58.682Z,99455.86
2024-03-19T01:28:29.081Z,99453.95
2024-03-19T01:30:59.505Z,99452.17
2024-03-19T01:33:30.001Z,99456.34
2024-03-19T01:36:00.914Z,99457.54
2024-03-19T01:38:31.395Z,99461.83
2024-03-19T01:41:01.964Z,99463.42
2024-03-19T01:43:32.851Z,99464.56
2024-03-19T01:49:06.642Z,99466.71
2024-03-19T01:51:37.401Z,99467.34
2024-03-19T01:54:08.950Z,99470.45
2024-03-19T01:56:39.655Z,99468.67
2024-03-19T01:59:10.891Z,99470.25
2024-03-19T02:01:41.644Z,99471.10
2024-03-19T02:04:13.166Z,99472.69
2024-03-19T02:06:43.770Z,99469.65
2024-03-19T02:09:15.028Z,99473.91
2024-03-19T02:11:45.753Z,99470.50
2024-03-19T02:14:16.631Z,99469.89
2024-03-19T02:16:47.182Z,99469.21
2024-03-19T02:19:18.712Z,99470.19
2024-03-19T02:21:49.266Z,99472.30
2024-03-19T02:24:19.868Z,99476.36
2024-03-19T02:26:50.652Z,99475.15
2024-03-19T02:29:21.022Z,99477.25
2024-03-19T02:31:51.561Z,99475.90
2024-03-19T02:34:22.161Z,99474.45
2024-03-19T02:36:52.555Z,99470.80
2024-03-19T02:39:24.511Z,99475.87
2024-03-19T02:41:55.027Z,99470.77
2024-03-19T02:44:26.002Z,99474.14
2024-03-19T02:46:56.561Z,99468.87
2024-03-19T02:49:26.921Z,99471.85
2024-03-19T02:51:57.350Z,99468.45
2024-03-19T02:54:27.757Z,99470.45
2024-03-19T02:56:58.316Z,99472.85
2024-03-19T02:59:28.894Z,99476.18
2024-03-19T03:02:00.111Z,99480.92
2024-03-19T03:04:30.832Z,99484.15
2024-03-19T03:07:01.150Z,99483.31
2024-03-19T03:09:31.724Z,99489.85
2024-03-19T03:12:02.210Z,99492.51
2024-03-19T03:14:33.076Z,99494.42
2024-03-19T03:17:03.474Z,99493.73
2024-03-19T03:19:34.026Z,99498.18
2024-03-19T03:22:04.423Z,99504.82
2024-03-19T03:24:35.938Z,99504.49
2024-03-19T03:27:07.305Z,99506.58
2024-03-19T03:29:37.967Z,99511.92
2024-03-19T03:32:10.986Z,99509.92
2024-03-19T03:34:41.741Z,99516.90
2024-03-19T03:37:15.374Z,99514.77
2024-03-19T03:39:48.601Z,99518.44
2024-03-19T03:42:19.086Z,99523.91
2024-03-19T03:44:49.704Z,99525.77
2024-03-19T03:47:20.186Z,99525.83
2024-03-19T03:49:51.719Z,99528.70
2024-03-19T03:52:22.344Z,99528.48
2024-03-19T03:54:53.475Z,99530.57
2024-03-19T03:57:24.341Z,99527.31
2024-03-19T03:59:54.712Z,99528.17
2024-03-19T04:02:27.443Z,99531.03
2024-03-19T04:04:58.301Z,99525.08
2024-03-19T04:07:28.810Z,99525.66
2024-03-19T04:09:59.300Z,99525.16
2024-03-19T04:12:29.675Z,99526.73
2024-03-19T04:15:00.840Z,99534.45
2024-03-19T04:17:33.813Z,99528.10
2024-03-19T04:20:06.236Z,99534.41
2024-03-19T04:22:37.369Z,99534.35
2024-03-19T04:25:09.500Z,99531.17
2024-03-19T04:27:40.281Z,99528.80
2024-03-19T04:30:13.256Z,99530.38
2024-03-19T04:32:44.100Z,99530.60
2024-03-19T04:35:14.468Z,99532.95
2024-03-19T04:37:45.636Z,99533.84
2024-03-19T04:40:17.747Z,99533.55
2024-03-19T04:42:49.641Z,99536.02
2024-03-19T04:45:20.241Z,99537.74
2024-03-19T04:47:50.741Z,99540.78
2024-03-19T04:50:21.321Z,99538.96
2024-03-19T04:52:52.133Z,99541.80
2024-03-19T04:55:23.324Z,99543.74
2024-03-19T04:57:53.848Z,99545.75
2024-03-19T05:00:24.546Z,99546.93
2024-03-19T05:02:54.935Z,99547.82
2024-03-19T05:05:25.484Z,99551.23
2024-03-19T05:07:56.164Z,99554.59
2024-03-19T05:10:26.701Z,99556.31
2024-03-19T05:12:57.299Z,99556.27
2024-03-19T05:15:27.733Z,99551.79
2024-03-19T05:17:58.178Z,99556.76
2024-03-19T05:20:28.817Z,99558.10
2024-03-19T05:22:59.461Z,99561.48
2024-03-19T05:25:29.979Z,99563.60
2024-03-19T05:28:00.873Z,99564.22
2024-03-19T05:30:33.821Z,99565.30
2024-03-19T05:33:05.133Z,99564.41
2024-03-19T05:35:35.701Z,99568.30
2024-03-19T05:38:06.459Z,99569.81
2024-03-19T05:40:38.204Z,99566.16
2024-03-19T05:43:08.864Z,99571.96
2024-03-19T05:45:40.020Z,99575.06
2024-03-19T05:48:11.564Z,99575.74
2024-03-19T05:50:42.288Z,99579.59
2024-03-19T05:53:12.700Z,99582.20
2024-03-19T05:55:43.244Z,99584.36
2024-03-19T05:58:13.884Z,99586.84
2024-03-19T06:00:44.462Z,99587.23
2024-03-19T06:03:16.145Z,99590.12
2024-03-19T06:05:46.633Z,99591.79
2024-03-19T06:08:17.170Z,99586.38
2024-03-19T06:10:48.193Z,99590.88
2024-03-19T06:13:19.245Z,99595.80
2024-03-19T06:15:49.560Z,99600.30
2024-03-19T06:18:20.431Z,99599.36
2024-03-19T06:20:51.720Z,99598.64
2024-03-19T06:23:22.583Z,99599.38
2024-03-19T06:25:53.213Z,99603.33
2024-03-19T06:28:24.159Z,99600.70
2024-03-19T06:30:56.471Z,99605.60
2024-03-19T06:33:27.241Z,99607.74
2024-03-19T06:35:57.801Z,99612.48
2024-03-19T06:38:28.758Z,99618.33
2024-03-19T06:40:59.482Z,99618.61
2024-03-19T06:43:30.901Z,99626.71
2024-03-19T06:46:01.578Z,99629.81
2024-03-19T06:48:32.086Z,99631.50
2024-03-19T06:51:02.709Z,99638.27
2024-03-19T06:53:33.855Z,99636.75
2024-03-19T06:56:10.524Z,99639.08
2024-03-19T06:58:44.371Z,99641.64
2024-03-19T07:01:14.313Z,99641.75
2024-03-19T07:03:45.827Z,99644.58
2024-03-19T07:06:17.718Z,99649.35
2024-03-19T07:08:54.354Z,99649.02
2024-03-19T07:11:25.022Z,99650.70
2024-03-19T07:13:55.662Z,99656.33
2024-03-19T07:16:26.502Z,99659.77
2024-03-19T07:18:57.137Z,99662.06
2024-03-19T07:21:28.279Z,99666.69
2024-03-19T07:23:58.684Z,99661.91
2024-03-19T07:26:29.349Z,99666.74
2024-03-19T07:28:59.993Z,99672.39
2024-03-19T07:31:30.515Z,99671.16
2024-03-19T07:34:01.272Z,99669.21
2024-03-19T07:36:32.157Z,99670.02
2024-03-19T07:39:04.396Z,99674.08
2024-03-19T07:41:34.955Z,99674.71
2024-03-19T07:44:05.569Z,99676.34
2024-03-19T07:46:36.390Z,99677.36
2024-03-19T07:49:07.327Z,99679.30
2024-03-19T07:51:37.816Z,99681.70
2024-03-19T07:54:09.144Z,99684.63
2024-03-19T07:56:42.880Z,99684.30
2024-03-19T07:59:13.439Z,99684.64
2024-03-19T08:01:44.402Z,99688.42
2024-03-19T08:04:14.935Z,99691.01
2024-03-19T08:06:46.728Z,99692.38
2024-03-19T08:09:17.250Z,99693.40
2024-03-19T08:11:47.882Z,99695.48
2024-03-19T08:14:18.604Z,99693.14
2024-03-19T08:16:49.740Z,99696.63
2024-03-19T08:19:20.374Z,99697.80
2024-03-19T08:21:51.234Z,99701.41
2024-03-19T08:24:21.893Z,99705.91
2024-03-19T08:26:52.868Z,99708.85
2024-03-19T08:29:23.562Z,99710.41
2024-03-19T08:31:54.345Z,99706.44
2024-03-19T08:34:25.004Z,99708.90
2024-03-19T08:36:55.849Z,99710.80
2024-03-19T08:39:27.071Z,99705.14
2024-03-19T08:41:57.835Z,99703.40
2024-03-19T08:44:28.606Z,99708.63
2024-03-19T08:46:59.417Z,99709.52
2024-03-19T08:49:30.638Z,99711.45
2024-03-19T08:52:01.470Z,99710.45
2024-03-19T08:54:32.355Z,99713.54
2024-03-19T08:57:02.890Z,99714.16
2024-03-19T08:59:34.070Z,99712.37
2024-03-19T09:02:05.767Z,99714.84
2024-03-19T09:04:37.359Z,99718.44
2024-03-19T09:07:08.765Z,99717.54
2024-03-19T09:09:39.556Z,99715.86
2024-03-19T09:12:10.336Z,99715.81
2024-03-19T09:14:41.208Z,99715.81
2024-03-19T09:17:13.405Z,99718.30
2024-03-19T09:19:45.024Z,99718.25
2024-03-19T09:22:15.861Z,99718.73
2024-03-19T09:24:46.627Z,99724.89
2024-03-19T09:27:17.360Z,99727.20
2024-03-19T09:29:48.115Z,99731.70
2024-03-19T09:32:19.236Z,99731.98
2024-03-19T09:34:50.206Z,99731.86
2024-03-19T09:37:21.818Z,99737.38
2024-03-19T09:39:52.539Z,99737.77
2024-03-19T09:42:27.204Z,99741.09
2024-03-19T09:44:58.168Z,99745.91
2024-03-19T09:47:29.592Z,99744.17
2024-03-19T09:50:01.526Z,99745.98
2024-03-19T09:52:32.485Z,99748.96
2024-03-19T09:55:03.170Z,99747.67
2024-03-19T09:57:34.016Z,99747.33
2024-03-19T10:00:10.648Z,99747.27
2024-03-19T10:02:42.044Z,99748.23
2024-03-19T10:05:15.635Z,99750.02
2024-03-19T10:07:47.029Z,99748.95
2024-03-19T10:10:20.156Z,99742.29
2024-03-19T10:12:51.061Z,99745.87
2024-03-19T10:15:23.097Z,99740.86
2024-03-19T10:17:54.050Z,99744.95
2024-03-19T10:20:27.960Z,99743.34
2024-03-19T10:22:59.857Z,99743.58
2024-03-19T10:25:31.570Z,99738.95
2024-03-19T10:28:06.026Z,99731.17
2024-03-19T10:30:36.903Z,99732.19
2024-03-19T10:33:13.434Z,99724.64
2024-03-19T10:35:44.634Z,99730.25
2024-03-19T10:38:28.869Z,99729.61
2024-03-19T10:41:04.603Z,99733.00
2024-03-19T10:43:39.240Z,99733.96
2024-03-19T10:46:12.556Z,99724.59
2024-03-19T10:48:43.660Z,99724.89
2024-03-19T10:51:15.168Z,99720.20
2024-03-19T10:53:50.305Z,99718.44
2024-03-19T10:56:22.966Z,99718.08
2024-03-19T10:58:54.030Z,99717.79
2024-03-19T11:01:25.029Z,99714.11
2024-03-19T11:03:58.882Z,99715.89
2024-03-19T11:06:29.565Z,99713.85
2024-03-19T11:09:00.688Z,99704.34
2024-03-19T11:11:40.210Z,99705.77
2024-03-19T11:14:19.945Z,99701.30
2024-03-19T11:16:51.046Z,99698.31
2024-03-19T11:19:22.999Z,99696.95
2024-03-19T11:21:54.063Z,99691.81
2024-03-19T11:24:26.745Z,99688.27
2024-03-19T11:26:59.302Z,99694.29
2024-03-19T11:29:32.167Z,99688.48
2024-03-19T11:32:03.601Z,99688.02
2024-03-19T11:34:34.221Z,99686.00
2024-03-19T11:37:05.100Z,99684.59
2024-03-19T11:39:36.060Z,99685.71
2024-03-19T11:42:09.009Z,99685.25
2024-03-19T11:44:40.021Z,99683.83
2024-03-19T11:47:10.975Z,99685.52
2024-03-19T11:49:41.531Z,99679.77
2024-03-19T11:52:12.989Z,99675.10
2024-03-19T11:54:46.388Z,99676.05
2024-03-19T11:57:19.035Z,99673.63
2024-03-19T11:59:51.878Z,99673.61
2024-03-19T12:02:22.939Z,99670.52
2024-03-19T12:04:53.453Z,99676.02
2024-03-19T12:07:26.061Z,99673.20
2024-03-19T12:09:56.845Z,99668.99
2024-03-19T12:12:28.935Z,99669.29
2024-03-19T12:14:59.482Z,99668.73
2024-03-19T12:17:30.456Z,99665.63
2024-03-19T12:20:04.830Z,99666.27
2024-03-19T12:22:36.982Z,99664.17
2024-03-19T12:25:12.121Z,99663.30
2024-03-19T12:27:44.141Z,99658.02
2024-03-19T12:30:18.877Z,99656.23
2024-03-19T12:33:00.423Z,99656.68
2024-03-19T12:35:31.745Z,99661.05
2024-03-19T12:38:02.648Z,99658.01
2024-03-19T12:40:33.850Z,99653.67
2024-03-19T12:43:04.700Z,99654.47
2024-03-19T12:45:35.523Z,99651.14
2024-03-19T12:48:07.696Z,99657.33
2024-03-19T12:50:38.647Z,99649.05
2024-03-19T12:53:09.309Z,99647.36
2024-03-19T12:55:41.773Z,99646.80
2024-03-19T12:58:12.694Z,99643.65
2024-03-19T13:00:43.431Z,99636.95
2024-03-19T13:03:14.191Z,99635.82
2024-03-19T13:05:45.372Z,99634.58
2024-03-19T13:08:16.193Z,99636.99
2024-03-19T13:10:47.270Z,99632.95
2024-03-19T13:13:17.909Z,99632.55
2024-03-19T13:15:48.812Z,99630.23
2024-03-19T13:18:19.538Z,99626.80
2024-03-19T13:20:50.284Z,99624.38
2024-03-19T13:23:20.959Z,99622.13
2024-03-19T13:25:51.628Z,99616.05
2024-03-19T13:28:22.211Z,99615.55
2024-03-19T13:30:52.956Z,99618.02
2024-03-19T13:33:23.535Z,99616.85
2024-03-19T13:35:54.044Z,99614.88
2024-03-19T13:38:24.966Z,99613.20
2024-03-19T13:40:55.917Z,99620.41
2024-03-19T13:43:26.557Z,99614.89
2024-03-19T13:46:03.265Z,99614.84
2024-03-19T13:48:34.538Z,99616.58
2024-03-19T13:51:06.080Z,99615.90
2024-03-19T13:53:36.922Z,99614.05
2024-03-19T13:56:09.167Z,99615.27
2024-03-19T13:58:39.723Z,99617.09
2024-03-19T14:01:10.335Z,99614.11
2024-03-19T14:03:41.697Z,99616.23
2024-03-19T14:06:13.204Z,99617.82
2024-03-19T14:08:43.697Z,99617.09
2024-03-19T14:11:16.636Z,99615.06
2024-03-19T14:13:47.266Z,99614.58
2024-03-19T14:16:18.943Z,99614.88
2024-03-19T14:18:50.370Z,99615.63
2024-03-19T14:21:22.835Z,99617.95
2024-03-19T14:23:55.402Z,99614.13
2024-03-19T14:26:25.949Z,99614.20
2024-03-19T14:28:56.696Z,99611.23
2024-03-19T14:31:27.424Z,99610.13
2024-03-19T14:34:03.644Z,99610.07
2024-03-19T14:36:41.386Z,99611.59
2024-03-19T14:39:12.114Z,99606.92
2024-03-19T14:41:42.768Z,99603.44
2024-03-19T14:44:13.465Z,99599.72
2024-03-19T14:46:44.496Z,99597.70
2024-03-19T14:49:14.992Z,99594.56
2024-03-19T14:51:45.594Z,99597.44
2024-03-19T14:54:16.768Z,99600.24
2024-03-19T14:56:47.365Z,99599.18
2024-03-19T14:59:17.926Z,99600.80
2024-03-19T15:01:48.463Z,99600.88
2024-03-19T15:04:20.068Z,99598.30
2024-03-19T15:06:51.364Z,99601.16
2024-03-19T15:09:22.346Z,99601.38
2024-03-19T15:11:53.159Z,99598.52
2024-03-19T15:14:23.601Z,99593.42
2024-03-19T15:16:54.275Z,99594.64
2024-03-19T15:19:25.035Z,99592.68
2024-03-19T15:21:55.754Z,99594.72
2024-03-19T15:24:26.708Z,99589.77
2024-03-19T15:26:57.368Z,99592.73
2024-03-19T15:29:27.971Z,99588.45
2024-03-19T15:31:58.955Z,99584.58
2024-03-19T15:34:29.938Z,99586.38
2024-03-19T15:37:00.595Z,99591.70
2024-03-19T15:39:33.304Z,99589.27
2024-03-19T15:42:05.473Z,99589.38
2024-03-19T15:44:37.416Z,99592.19
2024-03-19T15:47:08.728Z,99591.77
2024-03-19T15:49:43.177Z,99591.19
2024-03-19T15:52:13.649Z,99591.27
2024-03-19T15:54:44.817Z,99590.33
2024-03-19T15:57:18.541Z,99589.07
2024-03-19T15:59:49.974Z,99591.69
2024-03-19T16:02:21.128Z,99589.73
2024-03-19T16:04:52.702Z,99591.59
2024-03-19T16:07:23.389Z,99595.02
2024-03-19T16:09:54.035Z,99593.78
2024-03-19T16:12:27.288Z,99598.29
2024-03-19T16:15:05.367Z,99601.31
2024-03-19T16:17:36.609Z,99603.80
2024-03-19T16:20:11.101Z,99603.63
2024-03-19T16:22:42.093Z,99601.80
2024-03-19T16:25:15.576Z,99603.65
2024-03-19T16:27:46.417Z,99606.83
2024-03-19T16:30:20.387Z,99607.64
2024-03-19T16:32:49.504Z,99613.83
2024-03-19T16:35:20.605Z,99613.48
2024-03-19T16:37:51.272Z,99612.87
2024-03-19T16:40:21.815Z,99612.98
2024-03-19T16:42:52.379Z,99616.05
2024-03-19T16:45:23.174Z,99617.59
2024-03-19T16:47:54.013Z,99618.93
2024-03-19T16:50:25.325Z,99621.23
2024-03-19T16:52:56.540Z,99623.13
2024-03-19T16:55:27.237Z,99625.23
2024-03-19T16:57:58.001Z,99628.20
2024-03-19T17:00:29.953Z,99630.70
2024-03-19T17:03:01.001Z,99633.14
2024-03-19T17:05:32.379Z,99633.90
2024-03-19T17:08:03.023Z,99638.88
2024-03-19T17:10:34.685Z,99638.46
2024-03-19T17:13:05.759Z,99639.44
2024-03-19T17:15:36.957Z,99637.91
2024-03-19T17:18:08.084Z,99644.01
2024-03-19T17:20:39.499Z,99648.25
2024-03-19T17:23:11.261Z,99646.26
2024-03-19T17:25:42.295Z,99646.67
2024-03-19T17:28:14.759Z,99648.09
2024-03-19T17:30:45.898Z,99647.89
2024-03-19T17:33:18.427Z,99652.95
2024-03-19T17:35:49.466Z,99662.08
2024-03-19T17:38:20.475Z,99655.92
2024-03-19T17:40:52.279Z,99662.30
2024-03-19T17:43:23.051Z,99658.88
2024-03-19T17:45:54.262Z,99659.41
2024-03-19T17:48:25.274Z,99662.06
2024-03-19T17:50:56.041Z,99663.02
2024-03-19T17:53:26.783Z,99666.20
2024-03-19T17:55:58.103Z,99663.49
2024-03-19T17:58:28.621Z,99662.70
2024-03-19T18:00:59.831Z,99665.54
2024-03-19T18:03:30.762Z,99668.31
2024-03-19T18:06:07.278Z,99667.70
2024-03-19T18:08:40.288Z,99669.06
2024-03-19T18:11:11.081Z,99667.05
2024-03-19T18:13:41.884Z,99667.25
2024-03-19T18:16:12.696Z,99673.36
2024-03-19T18:18:43.531Z,99673.70
2024-03-19T18:21:15.238Z,99677.17
2024-03-19T18:23:46.143Z,99682.22
2024-03-19T18:26:17.564Z,99680.30
2024-03-19T18:28:48.390Z,99677.41
2024-03-19T18:31:19.066Z,99679.58
2024-03-19T18:33:50.425Z,99681.31
2024-03-19T18:36:21.063Z,99683.05
2024-03-19T18:38:53.390Z,99688.20
2024-03-19T18:41:25.606Z,99688.05
2024-03-19T18:43:56.518Z,99690.93
2024-03-19T18:46:27.539Z,99689.61
2024-03-19T18:48:58.227Z,99691.23
2024-03-19T18:51:29.338Z,99694.09
2024-03-19T18:54:00.963Z,99693.95
2024-03-19T18:56:32.015Z,99690.72
2024-03-19T18:59:05.070Z,99691.04
2024-03-19T19:01:35.764Z,99691.61
2024-03-19T19:04:07.206Z,99688.09
2024-03-19T19:06:38.301Z,99691.79
2024-03-19T19:09:09.849Z,99692.00
2024-03-19T19:11:41.135Z,99691.87
2024-03-19T19:14:11.947Z,99688.01
2024-03-19T19:16:43.000Z,99693.37
2024-03-19T19:19:15.071Z,99693.13
2024-03-19T19:21:45.743Z,99696.27
2024-03-19T19:24:16.824Z,99696.77
2024-03-19T19:26:49.199Z,99697.42
2024-03-19T19:29:21.526Z,99696.45
2024-03-19T19:31:53.875Z,99701.23
2024-03-19T19:34:24.898Z,99698.96
2024-03-19T19:36:55.756Z,99700.84
2024-03-19T19:39:27.961Z,99705.36
2024-03-19T19:41:58.893Z,99713.55
2024-03-19T19:44:32.983Z,99714.16
2024-03-19T19:47:04.767Z,99718.30
2024-03-19T19:49:35.816Z,99718.83
2024-03-19T19:52:07.516Z,99716.73
2024-03-19T19:54:38.713Z,99714.80
2024-03-19T19:57:10.808Z,99711.96
2024-03-19T19:59:42.379Z,99713.02
2024-03-19T20:02:18.293Z,99712.42
2024-03-19T20:04:49.946Z,99708.59
2024-03-19T20:07:20.785Z,99716.23
2024-03-19T20:09:51.959Z,99718.09
2024-03-19T20:12:22.742Z,99721.67
2024-03-19T20:14:54.056Z,99720.86
2024-03-19T20:17:25.038Z,99723.47
2024-03-19T20:19:56.215Z,99723.48
2024-03-19T20:22:27.758Z,99724.08
2024-03-19T20:24:59.308Z,99728.42
2024-03-19T20:27:30.140Z,99729.23
2024-03-19T20:30:01.062Z,99727.38
2024-03-19T20:32:32.212Z,99721.71
2024-03-19T20:35:03.451Z,99720.70
2024-03-19T20:37:34.235Z,99725.93
2024-03-19T20:40:07.890Z,99726.58
2024-03-19T20:42:39.167Z,99728.27
2024-03-19T20:45:11.885Z,99730.30
2024-03-19T20:47:47.762Z,99725.20
2024-03-19T20:50:18.912Z,99723.02
2024-03-19T20:52:49.693Z,99727.02
2024-03-19T20:55:20.422Z,99725.74
2024-03-19T20:57:51.173Z,99722.80
2024-03-19T21:00:23.392Z,99724.48
2024-03-19T21:02:54.266Z,99725.81
2024-03-19T21:05:25.209Z,99722.67
2024-03-19T21:07:56.202Z,99723.87
2024-03-19T21:10:27.442Z,99727.21
2024-03-19T21:12:58.687Z,99729.45
2024-03-19T21:15:29.723Z,99725.16
2024-03-19T21:18:01.513Z,99724.30
2024-03-19T21:20:32.259Z,99721.15
2024-03-19T21:23:03.358Z,99720.19
2024-03-19T21:25:35.602Z,99718.03
2024-03-19T21:28:07.332Z,99719.23
2024-03-19T21:30:39.219Z,99719.86
2024-03-19T21:33:09.987Z,99717.72
2024-03-19T21:35:40.614Z,99718.63
2024-03-19T21:38:11.309Z,99720.09
2024-03-19T21:40:42.145Z,99719.48
2024-03-19T21:43:12.949Z,99718.88
2024-03-19T21:45:44.818Z,99720.85
2024-03-19T21:48:15.680Z,99720.13
2024-03-19T21:50:46.276Z,99716.52
2024-03-19T21:53:17.438Z,99713.71
2024-03-19T21:55:48.120Z,99711.58
2024-03-19T21:58:19.123Z,99714.77
2024-03-19T22:00:49.704Z,99716.70
2024-03-19T22:03:20.367Z,99713.60
2024-03-19T22:05:50.928Z,99708.14
2024-03-19T22:08:33.565Z,99712.23
2024-03-19T22:11:07.331Z,99709.63
2024-03-19T22:13:38.328Z,99706.83
2024-03-19T22:16:10.849Z,99708.36
2024-03-19T22:18:42.432Z,99706.67
2024-03-19T22:21:13.310Z,99703.17
2024-03-19T22:23:43.830Z,99704.27
2024-03-19T22:26:14.410Z,99705.21
2024-03-19T22:28:46.134Z,99706.73
2024-03-19T22:31:17.885Z,99708.38
2024-03-19T22:33:48.556Z,99705.27
2024-03-19T22:36:19.293Z,99708.52
2024-03-19T22:38:50.060Z,99707.01
2024-03-19T22:41:20.547Z,99708.27
2024-03-19T22:43:51.042Z,99701.25
2024-03-19T22:46:22.536Z,99703.84
2024-03-19T22:48:52.936Z,99702.76
2024-03-19T22:51:23.353Z,99698.61
2024-03-19T22:53:53.951Z,99701.13
2024-03-19T22:56:24.612Z,99703.65
2024-03-19T22:58:55.186Z,99706.83
2024-03-19T23:01:26.462Z,99707.47
2024-03-19T23:03:59.979Z,99705.98
2024-03-19T23:06:31.694Z,99702.69
2024-03-19T23:09:03.622Z,99706.95
2024-03-19T23:11:34.474Z,99704.39
2024-03-19T23:14:04.843Z,99711.13
2024-03-19T23:16:35.476Z,99708.63
2024-03-19T23:19:06.022Z,99711.94
2024-03-19T23:21:36.728Z,99707.47
2024-03-19T23:24:08.593Z,99707.45
2024-03-19T23:26:38.998Z,99710.93
2024-03-19T23:29:09.650Z,99709.35
2024-03-19T23:31:40.193Z,99707.86
2024-03-19T23:34:10.582Z,99709.70
2024-03-19T23:36:40.987Z,99707.44
2024-03-19T23:39:14.449Z,99714.34
2024-03-19T23:41:45.087Z,99715.46
2024-03-19T23:44:15.985Z,99718.94
2024-03-19T23:46:47.234Z,99717.54
2024-03-19T23:49:18.262Z,99717.54
2024-03-19T23:51:49.254Z,99714.28
2024-03-19T23:54:19.654Z,99710.45
2024-03-19T23:56:50.348Z,99710.04
2024-03-19T23:59:20.965Z,99707.17
